sensor_id;sensor_type;location;lat;lon;timestamp;temperature;humidity
19017;DHT22;9641;51.494;6.670;2022-09-01T00:01:47;18.70;1.00
19017;DHT22;9641;51.494;6.670;2022-09-01T00:04:16;18.60;1.00
19017;DHT22;9641;51.494;6.670;2022-09-01T00:06:43;18.60;1.00
19017;DHT22;9641;51.494;6.670;2022-09-01T00:09:15;18.60;1.00
19017;DHT22;9641;51.494;6.670;2022-09-01T00:11:44;18.50;1.00
19017;DHT22;9641;51.494;6.670;2022-09-01T00:14:12;18.50;1.00
19017;DHT22;9641;51.494;6.670;2022-09-01T00:16:39;18.40;1.00
19017;DHT22;9641;51.494;6.670;2022-09-01T00:19:06;18.30;1.00
19017;DHT22;9641;51.494;6.670;2022-09-01T00:21:39;18.20;1.00
19017;DHT22;9641;51.494;6.670;2022-09-01T00:24:06;18.20;1.00
19017;DHT22;9641;51.494;6.670;2022-09-01T00:26:35;18.10;1.00
19017;DHT22;9641;51.494;6.670;2022-09-01T00:29:03;18.00;1.00
19017;DHT22;9641;51.494;6.670;2022-09-01T00:31:30;17.90;1.00
19017;DHT22;9641;51.494;6.670;2022-09-01T00:33:57;17.80;1.00
19017;DHT22;9641;51.494;6.670;2022-09-01T00:36:24;17.80;1.00
19017;DHT22;9641;51.494;6.670;2022-09-01T00:38:51;17.80;1.00
19017;DHT22;9641;51.494;6.670;2022-09-01T00:41:20;17.80;1.00
19017;DHT22;9641;51.494;6.670;2022-09-01T00:43:51;17.70;1.00
19017;DHT22;9641;51.494;6.670;2022-09-01T00:46:21;17.80;1.00
19017;DHT22;9641;51.494;6.670;2022-09-01T00:48:52;17.70;1.00
19017;DHT22;9641;51.494;6.670;2022-09-01T00:51:19;17.70;1.00
19017;DHT22;9641;51.494;6.670;2022-09-01T00:53:46;17.60;1.00
19017;DHT22;9641;51.494;6.670;2022-09-01T00:56:14;17.60;1.00
19017;DHT22;9641;51.494;6.670;2022-09-01T00:58:41;17.60;1.00
19017;DHT22;9641;51.494;6.670;2022-09-01T01:01:11;17.50;1.00
19017;DHT22;9641;51.494;6.670;2022-09-01T01:03:38;17.50;1.00
19017;DHT22;9641;51.494;6.670;2022-09-01T01:06:10;17.50;1.00
19017;DHT22;9641;51.494;6.670;2022-09-01T01:08:41;17.50;1.00
19017;DHT22;9641;51.494;6.670;2022-09-01T01:11:15;17.50;1.00
19017;DHT22;9641;51.494;6.670;2022-09-01T01:13:48;17.40;1.00
19017;DHT22;9641;51.494;6.670;2022-09-01T01:16:17;17.40;1.00
19017;DHT22;9641;51.494;6.670;2022-09-01T01:18:45;17.40;1.00
19017;DHT22;9641;51.494;6.670;2022-09-01T01:21:17;17.40;1.00
19017;DHT22;9641;51.494;6.670;2022-09-01T01:24:05;17.40;1.00
19017;DHT22;9641;51.494;6.670;2022-09-01T01:26:36;17.40;1.00
19017;DHT22;9641;51.494;6.670;2022-09-01T01:29:04;17.40;1.00
19017;DHT22;9641;51.494;6.670;2022-09-01T01:31:35;17.40;1.00
19017;DHT22;9641;51.494;6.670;2022-09-01T01:34:03;17.40;1.00
19017;DHT22;9641;51.494;6.670;2022-09-01T01:36:34;17.40;1.00
19017;DHT22;9641;51.494;6.670;2022-09-01T01:39:05;17.40;1.00
19017;DHT22;9641;51.494;6.670;2022-09-01T01:41:34;17.30;1.00
19017;DHT22;9641;51.494;6.670;2022-09-01T01:44:06;17.40;1.00
19017;DHT22;9641;51.494;6.670;2022-09-01T01:46:35;17.50;1.00
19017;DHT22;9641;51.494;6.670;2022-09-01T01:49:03;17.50;1.00
19017;DHT22;9641;51.494;6.670;2022-09-01T01:51:30;17.50;1.00
19017;DHT22;9641;51.494;6.670;2022-09-01T01:53:59;17.50;1.00
19017;DHT22;9641;51.494;6.670;2022-09-01T01:56:31;17.40;1.00
19017;DHT22;9641;51.494;6.670;2022-09-01T01:59:00;17.50;1.00
19017;DHT22;9641;51.494;6.670;2022-09-01T02:01:29;17.50;1.00
19017;DHT22;9641;51.494;6.670;2022-09-01T02:03:58;17.50;1.00
19017;DHT22;9641;51.494;6.670;2022-09-01T02:06:32;17.50;1.00
19017;DHT22;9641;51.494;6.670;2022-09-01T02:09:02;17.50;1.00
19017;DHT22;9641;51.494;6.670;2022-09-01T02:11:31;17.60;1.00
19017;DHT22;9641;51.494;6.670;2022-09-01T02:13:59;17.60;1.00
19017;DHT22;9641;51.494;6.670;2022-09-01T02:16:30;17.60;1.00
19017;DHT22;9641;51.494;6.670;2022-09-01T02:19:00;17.70;1.00
19017;DHT22;9641;51.494;6.670;2022-09-01T02:21:27;17.70;1.00
19017;DHT22;9641;51.494;6.670;2022-09-01T02:23:56;17.60;1.00
19017;DHT22;9641;51.494;6.670;2022-09-01T02:26:27;17.60;1.00
19017;DHT22;9641;51.494;6.670;2022-09-01T02:28:57;17.50;1.00
19017;DHT22;9641;51.494;6.670;2022-09-01T02:31:26;17.50;1.00
19017;DHT22;9641;51.494;6.670;2022-09-01T02:33:55;17.40;1.00
19017;DHT22;9641;51.494;6.670;2022-09-01T02:36:23;17.30;1.00
19017;DHT22;9641;51.494;6.670;2022-09-01T02:38:50;17.30;1.00
19017;DHT22;9641;51.494;6.670;2022-09-01T02:41:18;17.30;1.00
19017;DHT22;9641;51.494;6.670;2022-09-01T02:43:47;17.20;93.20
19017;DHT22;9641;51.494;6.670;2022-09-01T02:46:15;17.20;50.40
19017;DHT22;9641;51.494;6.670;2022-09-01T02:48:43;17.20;99.90
19017;DHT22;9641;51.494;6.670;2022-09-01T02:51:19;17.20;99.90
19017;DHT22;9641;51.494;6.670;2022-09-01T02:53:47;17.10;99.90
19017;DHT22;9641;51.494;6.670;2022-09-01T02:56:18;17.00;99.90
19017;DHT22;9641;51.494;6.670;2022-09-01T02:58:49;16.90;1.00
19017;DHT22;9641;51.494;6.670;2022-09-01T03:01:17;16.90;1.00
19017;DHT22;9641;51.494;6.670;2022-09-01T03:03:48;16.90;1.00
19017;DHT22;9641;51.494;6.670;2022-09-01T03:06:17;16.90;1.00
19017;DHT22;9641;51.494;6.670;2022-09-01T03:08:45;16.80;1.00
19017;DHT22;9641;51.494;6.670;2022-09-01T03:11:12;16.80;1.00
19017;DHT22;9641;51.494;6.670;2022-09-01T03:13:40;16.90;1.00
19017;DHT22;9641;51.494;6.670;2022-09-01T03:16:08;16.90;1.00
19017;DHT22;9641;51.494;6.670;2022-09-01T03:18:36;16.80;20.80
19017;DHT22;9641;51.494;6.670;2022-09-01T03:21:04;16.90;1.00
19017;DHT22;9641;51.494;6.670;2022-09-01T03:23:33;16.90;1.00
19017;DHT22;9641;51.494;6.670;2022-09-01T03:26:01;16.80;1.00
19017;DHT22;9641;51.494;6.670;2022-09-01T03:28:28;16.80;1.00
19017;DHT22;9641;51.494;6.670;2022-09-01T03:30:56;16.80;1.00
19017;DHT22;9641;51.494;6.670;2022-09-01T03:33:26;16.90;1.00
19017;DHT22;9641;51.494;6.670;2022-09-01T03:35:55;16.80;1.00
19017;DHT22;9641;51.494;6.670;2022-09-01T03:38:22;16.80;1.00
19017;DHT22;9641;51.494;6.670;2022-09-01T03:40:55;16.80;1.00
19017;DHT22;9641;51.494;6.670;2022-09-01T03:43:24;16.70;1.00
19017;DHT22;9641;51.494;6.670;2022-09-01T03:45:53;16.70;1.00
19017;DHT22;9641;51.494;6.670;2022-09-01T03:48:22;16.70;1.00
19017;DHT22;9641;51.494;6.670;2022-09-01T03:50:51;16.70;4.70
19017;DHT22;9641;51.494;6.670;2022-09-01T03:53:20;16.70;99.60
19017;DHT22;9641;51.494;6.670;2022-09-01T03:55:49;16.60;99.90
19017;DHT22;9641;51.494;6.670;2022-09-01T03:58:18;16.60;99.90
19017;DHT22;9641;51.494;6.670;2022-09-01T04:00:48;16.60;99.90
19017;DHT22;9641;51.494;6.670;2022-09-01T04:03:16;16.60;99.90
19017;DHT22;9641;51.494;6.670;2022-09-01T04:05:47;16.50;1.00
19017;DHT22;9641;51.494;6.670;2022-09-01T04:08:16;16.50;1.00
19017;DHT22;9641;51.494;6.670;2022-09-01T04:10:45;16.40;1.00
19017;DHT22;9641;51.494;6.670;2022-09-01T04:13:16;16.30;99.90
19017;DHT22;9641;51.494;6.670;2022-09-01T04:15:44;16.30;99.90
19017;DHT22;9641;51.494;6.670;2022-09-01T04:18:12;16.30;99.90
19017;DHT22;9641;51.494;6.670;2022-09-01T04:20:47;16.20;1.00
19017;DHT22;9641;51.494;6.670;2022-09-01T04:23:16;16.20;1.00
19017;DHT22;9641;51.494;6.670;2022-09-01T04:25:47;16.10;1.00
19017;DHT22;9641;51.494;6.670;2022-09-01T04:28:16;16.10;1.00
19017;DHT22;9641;51.494;6.670;2022-09-01T04:30:53;16.10;1.00
19017;DHT22;9641;51.494;6.670;2022-09-01T04:33:24;16.10;99.90
19017;DHT22;9641;51.494;6.670;2022-09-01T04:35:52;16.10;1.00
19017;DHT22;9641;51.494;6.670;2022-09-01T04:38:22;16.20;1.00
19017;DHT22;9641;51.494;6.670;2022-09-01T04:40:51;16.20;1.00
19017;DHT22;9641;51.494;6.670;2022-09-01T04:43:22;16.20;1.00
19017;DHT22;9641;51.494;6.670;2022-09-01T04:45:51;16.20;1.00
19017;DHT22;9641;51.494;6.670;2022-09-01T04:48:19;16.20;1.00
19017;DHT22;9641;51.494;6.670;2022-09-01T04:50:47;16.20;35.80
19017;DHT22;9641;51.494;6.670;2022-09-01T04:53:24;16.10;99.90
19017;DHT22;9641;51.494;6.670;2022-09-01T04:55:52;16.10;48.50
19017;DHT22;9641;51.494;6.670;2022-09-01T04:58:21;16.10;99.90
19017;DHT22;9641;51.494;6.670;2022-09-01T05:00:48;16.00;1.00
19017;DHT22;9641;51.494;6.670;2022-09-01T05:03:19;16.00;1.00
19017;DHT22;9641;51.494;6.670;2022-09-01T05:05:57;16.00;1.00
19017;DHT22;9641;51.494;6.670;2022-09-01T05:08:26;16.00;1.00
19017;DHT22;9641;51.494;6.670;2022-09-01T05:10:55;16.00;1.00
19017;DHT22;9641;51.494;6.670;2022-09-01T05:13:43;15.90;1.00
19017;DHT22;9641;51.494;6.670;2022-09-01T05:16:13;15.90;1.00
19017;DHT22;9641;51.494;6.670;2022-09-01T05:18:45;15.90;1.00
19017;DHT22;9641;51.494;6.670;2022-09-01T05:21:16;15.90;1.00
19017;DHT22;9641;51.494;6.670;2022-09-01T05:23:45;15.90;99.90
19017;DHT22;9641;51.494;6.670;2022-09-01T05:26:16;15.90;25.30
19017;DHT22;9641;51.494;6.670;2022-09-01T05:28:45;15.90;94.40
19017;DHT22;9641;51.494;6.670;2022-09-01T05:31:13;15.90;99.90
19017;DHT22;9641;51.494;6.670;2022-09-01T05:33:46;15.90;1.00
19017;DHT22;9641;51.494;6.670;2022-09-01T05:36:16;15.90;99.90
19017;DHT22;9641;51.494;6.670;2022-09-01T05:38:45;15.90;1.00
19017;DHT22;9641;51.494;6.670;2022-09-01T05:41:14;15.90;1.00
19017;DHT22;9641;51.494;6.670;2022-09-01T05:43:44;15.90;1.00
19017;DHT22;9641;51.494;6.670;2022-09-01T05:46:17;15.90;99.90
19017;DHT22;9641;51.494;6.670;2022-09-01T05:48:48;16.00;99.90
19017;DHT22;9641;51.494;6.670;2022-09-01T05:51:17;16.00;1.00
19017;DHT22;9641;51.494;6.670;2022-09-01T05:53:47;16.00;1.00
19017;DHT22;9641;51.494;6.670;2022-09-01T05:56:16;16.10;99.90
19017;DHT22;9641;51.494;6.670;2022-09-01T05:58:44;16.00;99.90
19017;DHT22;9641;51.494;6.670;2022-09-01T06:01:17;16.10;99.90
19017;DHT22;9641;51.494;6.670;2022-09-01T06:03:50;16.20;99.90
19017;DHT22;9641;51.494;6.670;2022-09-01T06:06:23;16.20;1.00
19017;DHT22;9641;51.494;6.670;2022-09-01T06:08:51;16.30;1.00
19017;DHT22;9641;51.494;6.670;2022-09-01T06:11:19;16.30;99.90
19017;DHT22;9641;51.494;6.670;2022-09-01T06:13:46;16.40;99.90
19017;DHT22;9641;51.494;6.670;2022-09-01T06:16:18;16.50;1.00
19017;DHT22;9641;51.494;6.670;2022-09-01T06:18:45;16.50;1.00
19017;DHT22;9641;51.494;6.670;2022-09-01T06:21:14;16.50;1.00
19017;DHT22;9641;51.494;6.670;2022-09-01T06:23:42;16.50;1.00
19017;DHT22;9641;51.494;6.670;2022-09-01T06:26:16;16.60;1.00
19017;DHT22;9641;51.494;6.670;2022-09-01T06:28:43;16.70;99.90
19017;DHT22;9641;51.494;6.670;2022-09-01T06:31:11;16.70;1.00
19017;DHT22;9641;51.494;6.670;2022-09-01T06:33:39;16.80;1.00
19017;DHT22;9641;51.494;6.670;2022-09-01T06:36:07;16.90;1.00
19017;DHT22;9641;51.494;6.670;2022-09-01T06:38:36;17.00;99.90
19017;DHT22;9641;51.494;6.670;2022-09-01T06:41:05;17.10;27.00
19017;DHT22;9641;51.494;6.670;2022-09-01T06:43:37;17.30;1.00
19017;DHT22;9641;51.494;6.670;2022-09-01T06:46:06;17.40;1.00
19017;DHT22;9641;51.494;6.670;2022-09-01T06:48:35;17.50;1.00
19017;DHT22;9641;51.494;6.670;2022-09-01T06:51:07;17.50;99.90
19017;DHT22;9641;51.494;6.670;2022-09-01T06:53:38;17.60;1.00
19017;DHT22;9641;51.494;6.670;2022-09-01T06:56:08;17.70;1.00
19017;DHT22;9641;51.494;6.670;2022-09-01T06:58:39;17.70;1.00
19017;DHT22;9641;51.494;6.670;2022-09-01T07:01:08;17.80;99.90
19017;DHT22;9641;51.494;6.670;2022-09-01T07:03:42;17.80;1.00
19017;DHT22;9641;51.494;6.670;2022-09-01T07:06:16;17.80;99.90
19017;DHT22;9641;51.494;6.670;2022-09-01T07:09:03;17.90;1.00
19017;DHT22;9641;51.494;6.670;2022-09-01T07:11:33;17.90;1.00
19017;DHT22;9641;51.494;6.670;2022-09-01T07:14:04;18.00;1.00
19017;DHT22;9641;51.494;6.670;2022-09-01T07:16:35;18.10;1.00
19017;DHT22;9641;51.494;6.670;2022-09-01T07:19:07;18.20;99.90
19017;DHT22;9641;51.494;6.670;2022-09-01T07:21:46;18.30;99.90
19017;DHT22;9641;51.494;6.670;2022-09-01T07:24:38;18.40;99.90
19017;DHT22;9641;51.494;6.670;2022-09-01T07:27:27;18.60;99.90
19017;DHT22;9641;51.494;6.670;2022-09-01T07:29:54;18.70;99.90
19017;DHT22;9641;51.494;6.670;2022-09-01T07:32:22;18.80;99.90
19017;DHT22;9641;51.494;6.670;2022-09-01T07:34:49;18.90;99.90
19017;DHT22;9641;51.494;6.670;2022-09-01T07:37:17;19.00;64.50
19017;DHT22;9641;51.494;6.670;2022-09-01T07:39:49;19.10;37.40
19017;DHT22;9641;51.494;6.670;2022-09-01T07:42:32;19.20;23.80
19017;DHT22;9641;51.494;6.670;2022-09-01T07:45:05;19.30;11.50
19017;DHT22;9641;51.494;6.670;2022-09-01T07:47:43;19.40;4.80
19017;DHT22;9641;51.494;6.670;2022-09-01T07:50:11;19.60;1.00
19017;DHT22;9641;51.494;6.670;2022-09-01T07:52:41;19.70;1.00
19017;DHT22;9641;51.494;6.670;2022-09-01T07:55:12;19.70;1.00
19017;DHT22;9641;51.494;6.670;2022-09-01T07:57:40;19.80;1.00
19017;DHT22;9641;51.494;6.670;2022-09-01T08:00:09;19.80;1.00
19017;DHT22;9641;51.494;6.670;2022-09-01T08:02:39;19.90;1.00
19017;DHT22;9641;51.494;6.670;2022-09-01T08:05:11;20.00;1.00
19017;DHT22;9641;51.494;6.670;2022-09-01T08:07:39;20.00;1.00
19017;DHT22;9641;51.494;6.670;2022-09-01T08:10:08;20.10;1.00
19017;DHT22;9641;51.494;6.670;2022-09-01T08:12:39;20.20;1.00
19017;DHT22;9641;51.494;6.670;2022-09-01T08:15:07;20.30;1.00
19017;DHT22;9641;51.494;6.670;2022-09-01T08:17:37;20.30;1.00
19017;DHT22;9641;51.494;6.670;2022-09-01T08:20:09;20.30;1.00
19017;DHT22;9641;51.494;6.670;2022-09-01T08:22:48;20.30;1.00
19017;DHT22;9641;51.494;6.670;2022-09-01T08:25:20;20.40;1.00
19017;DHT22;9641;51.494;6.670;2022-09-01T08:27:49;20.40;1.00
19017;DHT22;9641;51.494;6.670;2022-09-01T08:30:16;20.50;1.00
19017;DHT22;9641;51.494;6.670;2022-09-01T08:32:44;20.50;1.00
19017;DHT22;9641;51.494;6.670;2022-09-01T08:35:12;20.60;1.00
19017;DHT22;9641;51.494;6.670;2022-09-01T08:37:42;20.70;1.00
19017;DHT22;9641;51.494;6.670;2022-09-01T08:40:12;20.70;1.00
19017;DHT22;9641;51.494;6.670;2022-09-01T08:42:52;20.70;1.00
19017;DHT22;9641;51.494;6.670;2022-09-01T08:45:28;20.80;1.00
19017;DHT22;9641;51.494;6.670;2022-09-01T08:48:08;20.90;1.00
19017;DHT22;9641;51.494;6.670;2022-09-01T08:50:38;20.90;1.00
19017;DHT22;9641;51.494;6.670;2022-09-01T08:53:24;21.00;1.00
19017;DHT22;9641;51.494;6.670;2022-09-01T08:55:55;20.90;1.00
19017;DHT22;9641;51.494;6.670;2022-09-01T08:58:25;21.00;1.00
19017;DHT22;9641;51.494;6.670;2022-09-01T09:01:26;21.00;1.00
19017;DHT22;9641;51.494;6.670;2022-09-01T09:04:07;21.00;1.00
19017;DHT22;9641;51.494;6.670;2022-09-01T09:06:45;21.10;1.00
19017;DHT22;9641;51.494;6.670;2022-09-01T09:09:13;21.10;1.00
19017;DHT22;9641;51.494;6.670;2022-09-01T09:11:57;21.20;1.00
19017;DHT22;9641;51.494;6.670;2022-09-01T09:14:36;21.20;1.00
19017;DHT22;9641;51.494;6.670;2022-09-01T09:17:08;21.30;1.00
19017;DHT22;9641;51.494;6.670;2022-09-01T09:19:39;21.30;1.00
19017;DHT22;9641;51.494;6.670;2022-09-01T09:22:10;21.30;1.00
19017;DHT22;9641;51.494;6.670;2022-09-01T09:24:43;21.40;1.00
19017;DHT22;9641;51.494;6.670;2022-09-01T09:27:17;21.40;1.00
19017;DHT22;9641;51.494;6.670;2022-09-01T09:29:48;21.50;1.00
19017;DHT22;9641;51.494;6.670;2022-09-01T09:32:17;21.50;1.00
19017;DHT22;9641;51.494;6.670;2022-09-01T09:34:45;21.60;1.00
19017;DHT22;9641;51.494;6.670;2022-09-01T09:37:30;21.60;1.00
19017;DHT22;9641;51.494;6.670;2022-09-01T09:40:10;21.60;1.00
19017;DHT22;9641;51.494;6.670;2022-09-01T09:42:41;21.60;1.00
19017;DHT22;9641;51.494;6.670;2022-09-01T09:45:21;21.70;1.00
19017;DHT22;9641;51.494;6.670;2022-09-01T09:47:48;21.70;1.00
19017;DHT22;9641;51.494;6.670;2022-09-01T09:50:21;21.80;1.00
19017;DHT22;9641;51.494;6.670;2022-09-01T09:52:50;21.80;1.00
19017;DHT22;9641;51.494;6.670;2022-09-01T09:55:27;21.90;1.00
19017;DHT22;9641;51.494;6.670;2022-09-01T09:57:57;21.90;1.00
19017;DHT22;9641;51.494;6.670;2022-09-01T10:00:28;22.00;1.00
19017;DHT22;9641;51.494;6.670;2022-09-01T10:02:58;22.10;1.00
19017;DHT22;9641;51.494;6.670;2022-09-01T10:05:38;22.20;1.00
19017;DHT22;9641;51.494;6.670;2022-09-01T10:08:09;22.20;1.00
19017;DHT22;9641;51.494;6.670;2022-09-01T10:10:57;22.20;1.00
19017;DHT22;9641;51.494;6.670;2022-09-01T10:13:25;22.30;1.00
19017;DHT22;9641;51.494;6.670;2022-09-01T10:15:57;22.40;1.00
19017;DHT22;9641;51.494;6.670;2022-09-01T10:18:28;22.50;1.00
19017;DHT22;9641;51.494;6.670;2022-09-01T10:20:58;22.60;1.00
19017;DHT22;9641;51.494;6.670;2022-09-01T10:23:27;22.60;1.00
19017;DHT22;9641;51.494;6.670;2022-09-01T10:25:57;22.70;1.00
19017;DHT22;9641;51.494;6.670;2022-09-01T10:28:27;22.70;1.00
19017;DHT22;9641;51.494;6.670;2022-09-01T10:30:57;22.80;1.00
19017;DHT22;9641;51.494;6.670;2022-09-01T10:33:24;22.90;1.00
19017;DHT22;9641;51.494;6.670;2022-09-01T10:35:52;23.10;1.00
19017;DHT22;9641;51.494;6.670;2022-09-01T10:38:21;23.20;1.00
19017;DHT22;9641;51.494;6.670;2022-09-01T10:40:50;23.30;1.00
19017;DHT22;9641;51.494;6.670;2022-09-01T10:43:41;23.30;1.00
19017;DHT22;9641;51.494;6.670;2022-09-01T10:52:01;23.60;1.00
19017;DHT22;9641;51.494;6.670;2022-09-01T10:54:51;23.60;1.00
19017;DHT22;9641;51.494;6.670;2022-09-01T10:57:33;23.60;1.00
19017;DHT22;9641;51.494;6.670;2022-09-01T11:00:50;23.50;1.00
19017;DHT22;9641;51.494;6.670;2022-09-01T11:06:53;23.40;1.00
19017;DHT22;9641;51.494;6.670;2022-09-01T11:09:26;23.70;1.00
19017;DHT22;9641;51.494;6.670;2022-09-01T11:12:36;23.90;1.00
19017;DHT22;9641;51.494;6.670;2022-09-01T11:15:06;23.90;1.00
19017;DHT22;9641;51.494;6.670;2022-09-01T11:17:59;23.80;1.00
19017;DHT22;9641;51.494;6.670;2022-09-01T11:20:28;23.90;1.00
19017;DHT22;9641;51.494;6.670;2022-09-01T11:23:00;24.10;1.00
19017;DHT22;9641;51.494;6.670;2022-09-01T11:25:35;24.20;1.00
19017;DHT22;9641;51.494;6.670;2022-09-01T11:28:08;24.20;1.00
19017;DHT22;9641;51.494;6.670;2022-09-01T11:30:40;24.10;1.00
19017;DHT22;9641;51.494;6.670;2022-09-01T11:33:31;24.10;1.00
19017;DHT22;9641;51.494;6.670;2022-09-01T11:36:02;24.00;1.00
19017;DHT22;9641;51.494;6.670;2022-09-01T11:38:36;24.10;1.00
19017;DHT22;9641;51.494;6.670;2022-09-01T11:41:06;24.30;1.00
19017;DHT22;9641;51.494;6.670;2022-09-01T11:43:34;24.60;1.00
19017;DHT22;9641;51.494;6.670;2022-09-01T11:46:08;25.00;1.00
19017;DHT22;9641;51.494;6.670;2022-09-01T11:48:44;25.50;1.00
19017;DHT22;9641;51.494;6.670;2022-09-01T11:51:12;25.50;1.00
19017;DHT22;9641;51.494;6.670;2022-09-01T11:53:41;25.30;1.00
19017;DHT22;9641;51.494;6.670;2022-09-01T11:56:15;25.30;1.00
19017;DHT22;9641;51.494;6.670;2022-09-01T11:58:42;25.80;1.00
19017;DHT22;9641;51.494;6.670;2022-09-01T12:01:18;26.10;1.00
19017;DHT22;9641;51.494;6.670;2022-09-01T12:03:48;26.30;1.00
19017;DHT22;9641;51.494;6.670;2022-09-01T12:06:23;26.70;1.00
19017;DHT22;9641;51.494;6.670;2022-09-01T12:08:54;26.90;1.00
19017;DHT22;9641;51.494;6.670;2022-09-01T12:11:24;27.40;1.00
19017;DHT22;9641;51.494;6.670;2022-09-01T12:13:59;27.60;1.00
19017;DHT22;9641;51.494;6.670;2022-09-01T12:16:27;27.80;1.00
19017;DHT22;9641;51.494;6.670;2022-09-01T12:18:57;28.20;1.00
19017;DHT22;9641;51.494;6.670;2022-09-01T12:21:27;28.30;1.00
19017;DHT22;9641;51.494;6.670;2022-09-01T12:24:14;28.20;1.00
19017;DHT22;9641;51.494;6.670;2022-09-01T12:26:41;27.60;1.00
19017;DHT22;9641;51.494;6.670;2022-09-01T12:29:10;26.80;1.00
19017;DHT22;9641;51.494;6.670;2022-09-01T12:31:40;26.50;1.00
19017;DHT22;9641;51.494;6.670;2022-09-01T12:34:26;26.70;1.00
19017;DHT22;9641;51.494;6.670;2022-09-01T12:37:05;27.70;1.00
19017;DHT22;9641;51.494;6.670;2022-09-01T12:39:35;27.80;1.00
19017;DHT22;9641;51.494;6.670;2022-09-01T12:42:07;28.40;1.00
19017;DHT22;9641;51.494;6.670;2022-09-01T12:44:43;28.40;1.00
19017;DHT22;9641;51.494;6.670;2022-09-01T12:47:13;28.10;1.00
19017;DHT22;9641;51.494;6.670;2022-09-01T12:50:05;28.40;1.00
19017;DHT22;9641;51.494;6.670;2022-09-01T12:52:33;29.30;1.00
19017;DHT22;9641;51.494;6.670;2022-09-01T12:55:13;29.60;1.00
19017;DHT22;9641;51.494;6.670;2022-09-01T12:57:45;29.60;1.00
19017;DHT22;9641;51.494;6.670;2022-09-01T13:00:18;29.40;1.00
19017;DHT22;9641;51.494;6.670;2022-09-01T13:02:47;29.70;1.00
19017;DHT22;9641;51.494;6.670;2022-09-01T13:05:25;29.20;1.00
19017;DHT22;9641;51.494;6.670;2022-09-01T13:07:54;29.70;1.00
19017;DHT22;9641;51.494;6.670;2022-09-01T13:10:21;30.70;1.00
19017;DHT22;9641;51.494;6.670;2022-09-01T13:12:50;30.60;1.00
19017;DHT22;9641;51.494;6.670;2022-09-01T13:15:17;30.70;1.00
19017;DHT22;9641;51.494;6.670;2022-09-01T13:17:45;31.30;1.00
19017;DHT22;9641;51.494;6.670;2022-09-01T13:20:12;31.30;1.00
19017;DHT22;9641;51.494;6.670;2022-09-01T13:22:40;31.30;1.00
19017;DHT22;9641;51.494;6.670;2022-09-01T13:25:10;31.80;1.00
19017;DHT22;9641;51.494;6.670;2022-09-01T13:27:38;31.60;1.00
19017;DHT22;9641;51.494;6.670;2022-09-01T13:30:10;31.30;1.00
19017;DHT22;9641;51.494;6.670;2022-09-01T13:32:46;30.90;1.00
19017;DHT22;9641;51.494;6.670;2022-09-01T13:35:17;31.20;1.00
19017;DHT22;9641;51.494;6.670;2022-09-01T13:37:47;30.70;1.00
19017;DHT22;9641;51.494;6.670;2022-09-01T13:40:15;29.30;1.00
19017;DHT22;9641;51.494;6.670;2022-09-01T13:42:43;29.20;1.00
19017;DHT22;9641;51.494;6.670;2022-09-01T13:45:10;30.10;1.00
19017;DHT22;9641;51.494;6.670;2022-09-01T13:47:38;31.20;1.00
19017;DHT22;9641;51.494;6.670;2022-09-01T13:50:06;31.60;1.00
19017;DHT22;9641;51.494;6.670;2022-09-01T13:52:34;32.00;1.00
19017;DHT22;9641;51.494;6.670;2022-09-01T13:55:02;32.00;1.00
19017;DHT22;9641;51.494;6.670;2022-09-01T13:57:29;30.70;1.00
19017;DHT22;9641;51.494;6.670;2022-09-01T13:59:58;29.50;1.00
19017;DHT22;9641;51.494;6.670;2022-09-01T14:02:25;28.60;1.00
19017;DHT22;9641;51.494;6.670;2022-09-01T14:04:52;28.30;1.00
19017;DHT22;9641;51.494;6.670;2022-09-01T14:07:20;28.90;1.00
19017;DHT22;9641;51.494;6.670;2022-09-01T14:09:46;30.20;1.00
19017;DHT22;9641;51.494;6.670;2022-09-01T14:12:14;31.10;1.00
19017;DHT22;9641;51.494;6.670;2022-09-01T14:14:41;31.70;1.00
19017;DHT22;9641;51.494;6.670;2022-09-01T14:17:10;32.70;1.00
19017;DHT22;9641;51.494;6.670;2022-09-01T14:19:38;33.60;1.00
19017;DHT22;9641;51.494;6.670;2022-09-01T14:22:05;34.10;1.00
19017;DHT22;9641;51.494;6.670;2022-09-01T14:24:33;34.00;1.00
19017;DHT22;9641;51.494;6.670;2022-09-01T14:27:00;34.50;1.00
19017;DHT22;9641;51.494;6.670;2022-09-01T14:29:29;34.70;1.00
19017;DHT22;9641;51.494;6.670;2022-09-01T14:31:55;33.30;1.00
19017;DHT22;9641;51.494;6.670;2022-09-01T14:34:25;32.10;1.00
19017;DHT22;9641;51.494;6.670;2022-09-01T14:36:52;31.60;1.00
19017;DHT22;9641;51.494;6.670;2022-09-01T14:39:21;31.70;1.00
19017;DHT22;9641;51.494;6.670;2022-09-01T14:41:47;30.50;1.00
19017;DHT22;9641;51.494;6.670;2022-09-01T14:44:14;29.50;1.00
19017;DHT22;9641;51.494;6.670;2022-09-01T14:46:42;28.90;1.00
19017;DHT22;9641;51.494;6.670;2022-09-01T14:49:11;28.90;1.00
19017;DHT22;9641;51.494;6.670;2022-09-01T14:51:39;29.70;1.00
19017;DHT22;9641;51.494;6.670;2022-09-01T14:54:06;31.10;1.00
19017;DHT22;9641;51.494;6.670;2022-09-01T14:56:33;32.30;1.00
19017;DHT22;9641;51.494;6.670;2022-09-01T14:59:00;33.30;1.00
19017;DHT22;9641;51.494;6.670;2022-09-01T15:01:27;33.70;1.00
19017;DHT22;9641;51.494;6.670;2022-09-01T15:03:55;33.70;1.00
19017;DHT22;9641;51.494;6.670;2022-09-01T15:06:22;34.00;1.00
19017;DHT22;9641;51.494;6.670;2022-09-01T15:08:49;34.40;1.00
19017;DHT22;9641;51.494;6.670;2022-09-01T15:11:18;34.10;1.00
19017;DHT22;9641;51.494;6.670;2022-09-01T15:13:45;34.10;1.00
19017;DHT22;9641;51.494;6.670;2022-09-01T15:16:18;34.10;1.00
19017;DHT22;9641;51.494;6.670;2022-09-01T15:18:49;34.00;1.00
19017;DHT22;9641;51.494;6.670;2022-09-01T15:21:22;33.60;1.00
19017;DHT22;9641;51.494;6.670;2022-09-01T15:23:50;33.10;1.00
19017;DHT22;9641;51.494;6.670;2022-09-01T15:26:19;32.90;1.00
19017;DHT22;9641;51.494;6.670;2022-09-01T15:28:47;32.70;1.00
19017;DHT22;9641;51.494;6.670;2022-09-01T15:31:16;31.90;1.00
19017;DHT22;9641;51.494;6.670;2022-09-01T15:33:46;31.30;1.00
19017;DHT22;9641;51.494;6.670;2022-09-01T15:36:15;32.10;1.00
19017;DHT22;9641;51.494;6.670;2022-09-01T15:38:44;33.20;1.00
19017;DHT22;9641;51.494;6.670;2022-09-01T15:41:15;34.30;1.00
19017;DHT22;9641;51.494;6.670;2022-09-01T15:43:44;35.00;1.00
19017;DHT22;9641;51.494;6.670;2022-09-01T15:46:11;34.80;1.00
19017;DHT22;9641;51.494;6.670;2022-09-01T15:48:39;35.10;1.00
19017;DHT22;9641;51.494;6.670;2022-09-01T15:51:27;35.40;1.00
19017;DHT22;9641;51.494;6.670;2022-09-01T15:53:58;35.50;1.00
19017;DHT22;9641;51.494;6.670;2022-09-01T15:56:26;35.60;1.00
19017;DHT22;9641;51.494;6.670;2022-09-01T15:58:53;35.40;1.00
19017;DHT22;9641;51.494;6.670;2022-09-01T16:01:21;35.50;1.00
19017;DHT22;9641;51.494;6.670;2022-09-01T16:03:48;35.60;1.00
19017;DHT22;9641;51.494;6.670;2022-09-01T16:06:15;35.50;1.00
19017;DHT22;9641;51.494;6.670;2022-09-01T16:08:44;35.40;1.00
19017;DHT22;9641;51.494;6.670;2022-09-01T16:11:13;35.30;1.00
19017;DHT22;9641;51.494;6.670;2022-09-01T16:13:42;35.20;1.00
19017;DHT22;9641;51.494;6.670;2022-09-01T16:16:18;35.40;1.00
19017;DHT22;9641;51.494;6.670;2022-09-01T16:18:54;35.30;1.00
19017;DHT22;9641;51.494;6.670;2022-09-01T16:21:29;35.30;1.00
19017;DHT22;9641;51.494;6.670;2022-09-01T16:24:05;35.10;1.00
19017;DHT22;9641;51.494;6.670;2022-09-01T16:26:35;35.20;1.00
19017;DHT22;9641;51.494;6.670;2022-09-01T16:29:07;35.80;1.00
19017;DHT22;9641;51.494;6.670;2022-09-01T16:31:35;36.30;1.00
19017;DHT22;9641;51.494;6.670;2022-09-01T16:34:11;36.50;1.00